Time,TemperatureF,DewpointF,PressureIn,WindDirection,WindDirectionDegrees,WindSpeedMPH,WindSpeedGustMPH,Humidity,HourlyPrecipIn,Conditions,Clouds,dailyrainin,SoftwareType,DateUTC
2013-05-12 00:00:00,47.0,44.2,30.00,West,269,2.0,4.0,90,0.00,,,0.00,Wunderground v.1.15,2013-05-12 04:00:00,
2013-05-12 00:05:00,47.0,44.2,30.00,West,269,3.0,4.0,90,0.00,,,0.00,Wunderground v.1.15,2013-05-12 04:05:00,
2013-05-12 00:10:00,46.8,44.0,30.00,West,269,2.0,3.0,90,0.00,,,0.00,Wunderground v.1.15,2013-05-12 04:10:00,
2013-05-12 00:15:00,46.7,43.9,30.00,West,269,2.0,3.0,90,0.00,,,0.00,Wunderground v.1.15,2013-05-12 04:15:00,
2013-05-12 00:20:00,46.7,43.9,29.99,West,269,3.0,3.0,90,0.00,,,0.00,Wunderground v.1.15,2013-05-12 04:20:00,
2013-05-12 00:25:00,46.7,43.9,29.99,West,269,3.0,3.0,90,0.00,,,0.00,Wunderground v.1.15,2013-05-12 04:25:00,
2013-05-12 00:30:00,46.7,44.2,29.99,WSW,254,3.0,3.0,91,0.00,,,0.00,Wunderground v.1.15,2013-05-12 04:30:00,
2013-05-12 00:35:00,47.0,44.2,29.99,WSW,252,5.0,5.0,90,0.00,,,0.00,Wunderground v.1.15,2013-05-12 04:35:00,
2013-05-12 00:40:00,47.4,44.0,29.99,WSW,251,6.0,6.0,88,0.00,,,0.00,Wunderground v.1.15,2013-05-12 04:40:00,
2013-05-12 00:50:00,48.0,44.0,29.99,WSW,248,5.0,5.0,86,0.00,,,0.00,Wunderground v.1.15,2013-05-12 04:50:00,
2013-05-12 00:55:00,48.1,43.8,29.99,SW,234,5.0,6.0,85,0.00,,,0.00,Wunderground v.1.15,2013-05-12 04:55:00,
2013-05-12 01:00:00,48.1,43.8,29.99,WSW,238,5.0,5.0,85,0.00,,,0.00,Wunderground v.1.15,2013-05-12 05:00:00,
2013-05-12 01:05:00,47.9,43.3,29.99,SW,235,5.0,6.0,84,0.00,,,0.00,Wunderground v.1.15,2013-05-12 05:05:00,
2013-05-12 01:10:00,47.8,43.2,29.99,SW,230,5.0,6.0,84,0.00,,,0.00,Wunderground v.1.15,2013-05-12 05:10:00,
2013-05-12 01:20:00,47.2,42.9,29.98,SW,223,5.0,6.0,85,0.00,,,0.00,Wunderground v.1.15,2013-05-12 05:20:00,
2013-05-12 01:25:00,47.2,42.9,29.98,SW,225,6.0,7.0,85,0.00,,,0.00,Wunderground v.1.15,2013-05-12 05:25:00,
2013-05-12 01:30:00,47.1,42.8,29.98,SSW,211,6.0,6.0,85,0.00,,,0.00,Wunderground v.1.15,2013-05-12 05:30:00,
2013-05-12 01:35:00,47.1,42.5,29.98,SW,219,5.0,8.0,84,0.00,,,0.00,Wunderground v.1.15,2013-05-12 05:35:00,
2013-05-12 01:40:00,47.2,42.6,29.98,SSW,208,6.0,6.0,84,0.00,,,0.00,Wunderground v.1.15,2013-05-12 05:40:00,
2013-05-12 01:45:00,47.3,42.7,29.98,SSW,205,6.0,6.0,84,0.00,,,0.00,Wunderground v.1.15,2013-05-12 05:45:00,
2013-05-12 01:50:00,47.3,42.7,29.98,SSW,206,5.0,6.0,84,0.00,,,0.00,Wunderground v.1.15,2013-05-12 05:50:00,
2013-05-12 01:55:00,47.3,42.4,29.98,SSW,200,5.0,6.0,83,0.00,,,0.00,Wunderground v.1.15,2013-05-12 05:55:00,
2013-05-12 02:00:00,47.2,42.3,29.98,SSW,200,5.0,5.0,83,0.00,,,0.00,Wunderground v.1.15,2013-05-12 06:00:00,
2013-05-12 02:05:00,47.2,42.3,29.98,SSW,200,4.0,6.0,83,0.00,,,0.00,Wunderground v.1.15,2013-05-12 06:05:00,
2013-05-12 02:10:00,47.1,42.5,29.98,SSW,201,4.0,6.0,84,0.00,,,0.00,Wunderground v.1.15,2013-05-12 06:10:00,
2013-05-12 02:15:00,47.2,42.6,29.97,SSW,201,4.0,6.0,84,0.00,,,0.00,Wunderground v.1.15,2013-05-12 06:15:00,
2013-05-12 02:25:00,47.0,42.4,29.97,SSW,200,3.0,6.0,84,0.00,,,0.00,Wunderground v.1.15,2013-05-12 06:25:00,
2013-05-12 02:30:00,46.9,42.3,29.97,SSW,194,4.0,6.0,84,0.00,,,0.00,Wunderground v.1.15,2013-05-12 06:30:00,
2013-05-12 02:35:00,46.9,42.3,29.97,SSW,194,4.0,6.0,84,0.00,,,0.00,Wunderground v.1.15,2013-05-12 06:35:00,
2013-05-12 02:40:00,47.0,42.4,29.97,South,188,4.0,6.0,84,0.00,,,0.00,Wunderground v.1.15,2013-05-12 06:40:00,
2013-05-12 02:45:00,47.0,42.4,29.97,South,188,4.0,6.0,84,0.00,,,0.00,Wunderground v.1.15,2013-05-12 06:45:00,
2013-05-12 02:55:00,47.0,42.4,29.97,SSW,194,4.0,6.0,84,0.00,,,0.00,Wunderground v.1.15,2013-05-12 06:55:00,
2013-05-12 03:00:00,47.1,42.5,29.97,SSW,193,4.0,6.0,84,0.00,,,0.00,Wunderground v.1.15,2013-05-12 07:00:00,
2013-05-12 03:05:00,47.3,42.7,29.97,SSW,196,4.0,6.0,84,0.00,,,0.00,Wunderground v.1.15,2013-05-12 07:05:00,
2013-05-12 03:10:00,47.6,43.0,29.97,SSW,213,5.0,6.0,84,0.00,,,0.00,Wunderground v.1.15,2013-05-12 07:10:00,
2013-05-12 03:15:00,47.9,43.0,29.96,SSW,195,6.0,6.0,83,0.00,,,0.00,Wunderground v.1.15,2013-05-12 07:15:00,
2013-05-12 03:20:00,48.2,43.3,29.96,SSW,196,6.0,6.0,83,0.00,,,0.00,Wunderground v.1.15,2013-05-12 07:20:00,
2013-05-12 03:30:00,48.6,43.4,29.96,SSW,211,6.0,6.0,82,0.00,,,0.00,Wunderground v.1.15,2013-05-12 07:30:00,
2013-05-12 03:35:00,48.8,43.5,29.96,SSW,197,6.0,6.0,82,0.00,,,0.00,Wunderground v.1.15,2013-05-12 07:35:00,
2013-05-12 03:40:00,48.9,43.6,29.96,SSW,212,5.0,7.0,82,0.00,,,0.00,Wunderground v.1.15,2013-05-12 07:40:00,
2013-05-12 03:45:00,49.0,43.7,29.97,SW,236,5.0,8.0,82,0.00,,,0.00,Wunderground v.1.15,2013-05-12 07:45:00,
2013-05-12 03:50:00,49.7,44.4,29.97,West,270,7.0,10.0,82,0.00,,,0.00,Wunderground v.1.15,2013-05-12 07:50:00,
2013-05-12 04:00:00,49.8,42.9,29.97,West,262,9.0,11.0,77,0.00,,,0.00,Wunderground v.1.15,2013-05-12 08:00:00,
2013-05-12 04:05:00,49.4,41.5,29.98,West,271,9.0,11.0,74,0.00,,,0.00,Wunderground v.1.15,2013-05-12 08:05:00,
2013-05-12 04:10:00,49.0,40.7,29.98,WNW,283,8.0,8.0,73,0.00,,,0.00,Wunderground v.1.15,2013-05-12 08:10:00,
2013-05-12 04:15:00,48.7,40.8,29.98,West,273,8.0,8.0,74,0.00,,,0.00,Wunderground v.1.15,2013-05-12 08:15:00,
2013-05-12 04:20:00,48.3,40.4,29.98,WSW,242,9.0,9.0,74,0.00,,,0.00,Wunderground v.1.15,2013-05-12 08:20:00,
2013-05-12 04:25:00,48.1,40.5,29.98,West,264,10.0,10.0,75,0.00,,,0.00,Wunderground v.1.15,2013-05-12 08:25:00,
2013-05-12 04:35:00,47.5,40.0,29.99,WSW,252,12.0,13.0,75,0.00,,,0.00,Wunderground v.1.15,2013-05-12 08:35:00,
2013-05-12 04:40:00,47.3,39.8,29.99,WSW,257,12.0,12.0,75,0.00,,,0.00,Wunderground v.1.15,2013-05-12 08:40:00,
2013-05-12 04:45:00,47.0,39.1,29.99,WSW,247,11.0,12.0,74,0.00,,,0.00,Wunderground v.1.15,2013-05-12 08:45:00,
2013-05-12 04:50:00,46.7,38.9,29.99,West,269,12.0,12.0,74,0.00,,,0.00,Wunderground v.1.15,2013-05-12 08:50:00,
2013-05-12 04:55:00,46.5,38.7,29.99,SW,231,12.0,12.0,74,0.00,,,0.00,Wunderground v.1.15,2013-05-12 08:55:00,
2013-05-12 05:00:00,46.2,38.4,29.99,West,274,12.0,12.0,74,0.00,,,0.00,Wunderground v.1.15,2013-05-12 09:00:00,
2013-05-12 05:05:00,45.8,38.0,30.00,West,261,13.0,16.0,74,0.00,,,0.00,Wunderground v.1.15,2013-05-12 09:05:00,
2013-05-12 05:15:00,45.0,37.9,30.00,WSW,255,11.0,12.0,76,0.00,,,0.00,Wunderground v.1.15,2013-05-12 09:15:00,
2013-05-12 05:20:00,44.7,37.9,30.01,West,259,10.0,11.0,77,0.00,,,0.00,Wunderground v.1.15,2013-05-12 09:20:00,
2013-05-12 05:25:00,44.5,37.7,30.01,WSW,248,11.0,13.0,77,0.00,,,0.00,Wunderground v.1.15,2013-05-12 09:25:00,
2013-05-12 05:30:00,44.3,37.9,30.01,West,259,12.0,14.0,78,0.00,,,0.00,Wunderground v.1.15,2013-05-12 09:30:00,
2013-05-12 05:35:00,44.3,38.2,30.01,WNW,302,10.0,14.0,79,0.00,,,0.00,Wunderground v.1.15,2013-05-12 09:35:00,
2013-05-12 05:40:00,44.1,37.7,30.02,NW,306,10.0,10.0,78,0.00,,,0.00,Wunderground v.1.15,2013-05-12 09:40:00,
2013-05-12 05:45:00,43.8,37.4,30.02,WNW,288,9.0,10.0,78,0.00,,,0.00,Wunderground v.1.15,2013-05-12 09:45:00,
2013-05-12 05:50:00,43.6,37.5,30.02,WNW,296,8.0,9.0,79,0.00,,,0.00,Wunderground v.1.15,2013-05-12 09:50:00,
2013-05-12 05:55:00,43.3,37.2,30.02,NW,311,9.0,9.0,79,0.00,,,0.00,Wunderground v.1.15,2013-05-12 09:55:00,
2013-05-12 06:00:00,43.0,37.3,30.02,NW,304,9.0,9.0,80,0.00,,,0.00,Wunderground v.1.15,2013-05-12 10:00:00,
2013-05-12 06:10:00,42.8,37.4,30.02,WSW,247,6.0,7.0,81,0.00,,,0.00,Wunderground v.1.15,2013-05-12 10:10:00,
2013-05-12 06:15:00,42.7,37.0,30.02,NW,304,7.0,7.0,80,0.00,,,0.00,Wunderground v.1.15,2013-05-12 10:15:00,
2013-05-12 06:20:00,42.7,36.6,30.03,WSW,252,7.0,7.0,79,0.00,,,0.00,Wunderground v.1.15,2013-05-12 10:20:00,
2013-05-12 06:25:00,42.6,36.2,30.03,West,269,7.0,11.0,78,0.00,,,0.00,Wunderground v.1.15,2013-05-12 10:25:00,
2013-05-12 06:30:00,42.6,35.6,30.04,West,263,8.0,13.0,76,0.00,,,0.00,Wunderground v.1.15,2013-05-12 10:30:00,
2013-05-12 06:55:00,41.1,33.1,30.05,West,271,10.0,11.0,73,0.00,,,0.00,Wunderground v.1.15,2013-05-12 10:55:00,
2013-05-12 07:00:00,40.8,33.2,30.05,WSW,238,9.0,11.0,74,0.00,,,0.00,Wunderground v.1.15,2013-05-12 11:00:00,
2013-05-12 07:05:00,40.5,32.5,30.06,WSW,243,9.0,19.0,73,0.00,,,0.00,Wunderground v.1.15,2013-05-12 11:05:00,
2013-05-12 07:10:00,40.3,32.7,30.06,WSW,252,10.0,10.0,74,0.00,,,0.00,Wunderground v.1.15,2013-05-12 11:10:00,
2013-05-12 07:20:00,40.1,32.8,30.06,NW,306,9.0,9.0,75,0.00,,,0.00,Wunderground v.1.15,2013-05-12 11:20:00,
2013-05-12 07:25:00,40.3,33.0,30.07,WSW,251,8.0,19.0,75,0.00,,,0.00,Wunderground v.1.15,2013-05-12 11:25:00,
2013-05-12 07:30:00,40.4,32.8,30.07,West,261,8.0,19.0,74,0.00,,,0.00,Wunderground v.1.15,2013-05-12 11:30:00,
2013-05-12 07:35:00,40.4,32.4,30.07,WSW,254,9.0,19.0,73,0.00,,,0.00,Wunderground v.1.15,2013-05-12 11:35:00,
2013-05-12 07:40:00,40.3,32.0,30.07,WSW,253,11.0,19.0,72,0.00,,,0.00,Wunderground v.1.15,2013-05-12 11:40:00,
2013-05-12 07:45:00,40.4,32.4,30.07,WNW,293,11.0,19.0,73,0.00,,,0.00,Wunderground v.1.15,2013-05-12 11:45:00,
2013-05-12 07:55:00,40.6,32.3,30.07,WSW,242,8.0,19.0,72,0.00,,,0.00,Wunderground v.1.15,2013-05-12 11:55:00,
2013-05-12 08:00:00,40.8,31.4,30.07,WNW,284,9.0,19.0,69,0.00,,,0.00,Wunderground v.1.15,2013-05-12 12:00:00,
2013-05-12 08:05:00,41.0,31.6,30.07,WSW,242,10.0,19.0,69,0.00,,,0.00,Wunderground v.1.15,2013-05-12 12:05:00,
2013-05-12 08:10:00,41.2,32.2,30.07,SW,236,9.0,19.0,70,0.00,,,0.00,Wunderground v.1.15,2013-05-12 12:10:00,
2013-05-12 08:15:00,41.3,31.5,30.07,West,276,9.0,19.0,68,0.00,,,0.00,Wunderground v.1.15,2013-05-12 12:15:00,
2013-05-12 08:20:00,41.7,31.5,30.07,West,274,9.0,19.0,67,0.00,,,0.00,Wunderground v.1.15,2013-05-12 12:20:00,
2013-05-12 08:25:00,41.6,31.1,30.07,WSW,245,10.0,19.0,66,0.00,,,0.00,Wunderground v.1.15,2013-05-12 12:25:00,
2013-05-12 08:30:00,41.7,31.9,30.07,West,268,10.0,19.0,68,0.00,,,0.00,Wunderground v.1.15,2013-05-12 12:30:00,
2013-05-12 08:35:00,41.9,31.4,30.07,SW,236,10.0,19.0,66,0.00,,,0.00,Wunderground v.1.15,2013-05-12 12:35:00,
2013-05-12 08:40:00,42.2,31.3,30.07,West,260,10.0,19.0,65,0.00,,,0.00,Wunderground v.1.15,2013-05-12 12:40:00,
2013-05-12 08:45:00,42.4,32.2,30.07,SW,233,10.0,19.0,67,0.00,,,0.00,Wunderground v.1.15,2013-05-12 12:45:00,
2013-05-12 08:55:00,42.8,31.5,30.07,WSW,257,9.0,19.0,64,0.00,,,0.00,Wunderground v.1.15,2013-05-12 12:55:00,
2013-05-12 09:00:00,42.9,31.9,30.07,WSW,254,11.0,19.0,65,0.00,,,0.00,Wunderground v.1.15,2013-05-12 13:00:00,
2013-05-12 09:05:00,42.9,31.9,30.08,WSW,254,12.0,19.0,65,0.00,,,0.00,Wunderground v.1.15,2013-05-12 13:05:00,
2013-05-12 09:10:00,43.3,32.7,30.07,West,260,12.0,19.0,66,0.00,,,0.00,Wunderground v.1.15,2013-05-12 13:10:00,
2013-05-12 09:15:00,43.9,33.6,30.07,SW,234,12.0,19.0,67,0.00,,,0.00,Wunderground v.1.15,2013-05-12 13:15:00,
2013-05-12 09:20:00,43.8,32.8,30.08,WNW,290,12.0,12.0,65,0.00,,,0.00,Wunderground v.1.15,2013-05-12 13:20:00,
2013-05-12 09:30:00,44.0,31.8,30.07,West,261,12.0,12.0,62,0.00,,,0.00,Wunderground v.1.15,2013-05-12 13:30:00,
2013-05-12 09:35:00,44.2,32.4,30.07,WSW,237,13.0,13.0,63,0.00,,,0.00,Wunderground v.1.15,2013-05-12 13:35:00,
2013-05-12 09:40:00,44.9,33.1,30.07,SW,223,12.0,19.0,63,0.00,,,0.00,Wunderground v.1.15,2013-05-12 13:40:00,
2013-05-12 09:45:00,45.3,32.6,30.07,WSW,242,11.0,19.0,61,0.00,,,0.00,Wunderground v.1.15,2013-05-12 13:45:00,
2013-05-12 09:50:00,45.2,31.7,30.07,WSW,242,8.0,8.0,59,0.00,,,0.00,Wunderground v.1.15,2013-05-12 13:50:00,
2013-05-12 10:00:00,45.1,31.6,30.06,WSW,258,10.0,10.0,59,0.00,,,0.00,Wunderground v.1.15,2013-05-12 14:00:00,
2013-05-12 10:05:00,45.4,33.5,30.06,WSW,242,9.0,19.0,63,0.00,,,0.00,Wunderground v.1.15,2013-05-12 14:05:00,
2013-05-12 10:10:00,45.3,32.2,30.06,WSW,253,9.0,19.0,60,0.00,,,0.00,Wunderground v.1.15,2013-05-12 14:10:00,
2013-05-12 10:15:00,45.2,31.3,30.06,West,273,10.0,19.0,58,0.00,,,0.00,Wunderground v.1.15,2013-05-12 14:15:00,
2013-05-12 10:20:00,45.5,32.4,30.06,WSW,250,10.0,19.0,60,0.00,,,0.00,Wunderground v.1.15,2013-05-12 14:20:00,
2013-05-12 10:25:00,45.3,31.8,30.06,WSW,248,11.0,19.0,59,0.00,,,0.00,Wunderground v.1.15,2013-05-12 14:25:00,
2013-05-12 10:35:00,46.9,33.7,30.05,WSW,245,10.0,19.0,60,0.00,,,0.00,Wunderground v.1.15,2013-05-12 14:35:00,
2013-05-12 10:40:00,47.3,32.8,30.05,West,261,12.0,12.0,57,0.00,,,0.00,Wunderground v.1.15,2013-05-12 14:40:00,
2013-05-12 10:45:00,47.2,31.8,30.05,WSW,256,13.0,13.0,55,0.00,,,0.00,Wunderground v.1.15,2013-05-12 14:45:00,
2013-05-12 10:50:00,47.2,31.8,30.05,SW,228,13.0,19.0,55,0.00,,,0.00,Wunderground v.1.15,2013-05-12 14:50:00,
2013-05-12 10:55:00,48.2,33.7,30.05,WSW,247,11.0,19.0,57,0.00,,,0.00,Wunderground v.1.15,2013-05-12 14:55:00,
2013-05-12 11:05:00,47.9,32.0,30.05,West,266,12.0,12.0,54,0.00,,,0.00,Wunderground v.1.15,2013-05-12 15:05:00,
2013-05-12 11:10:00,49.0,33.1,30.05,WSW,242,11.0,11.0,54,0.00,,,0.00,Wunderground v.1.15,2013-05-12 15:10:00,
2013-05-12 11:15:00,49.2,32.3,30.05,West,275,10.0,17.0,52,0.00,,,0.00,Wunderground v.1.15,2013-05-12 15:15:00,
2013-05-12 11:20:00,48.8,32.4,30.05,WSW,251,11.0,19.0,53,0.00,,,0.00,Wunderground v.1.15,2013-05-12 15:20:00,
2013-05-12 11:25:00,49.1,31.2,30.05,West,272,12.0,19.0,50,0.00,,,0.00,Wunderground v.1.15,2013-05-12 15:25:00,
2013-05-12 11:30:00,49.5,32.6,30.04,West,278,13.0,13.0,52,0.00,,,0.00,Wunderground v.1.15,2013-05-12 15:30:00,
2013-05-12 11:40:00,48.1,31.8,30.05,WSW,240,12.0,19.0,53,0.00,,,0.00,Wunderground v.1.15,2013-05-12 15:40:00,
2013-05-12 11:45:00,47.5,30.7,30.05,West,267,11.0,19.0,52,0.00,,,0.00,Wunderground v.1.15,2013-05-12 15:45:00,
2013-05-12 11:50:00,47.1,31.3,30.05,WSW,253,13.0,13.0,54,0.00,,,0.00,Wunderground v.1.15,2013-05-12 15:50:00,
2013-05-12 11:55:00,46.6,33.0,30.06,WSW,257,15.0,15.0,59,0.00,,,0.00,Wunderground v.1.15,2013-05-12 15:55:00,
2013-05-12 12:00:00,46.9,31.6,30.05,SW,221,14.0,14.0,55,0.00,,,0.00,Wunderground v.1.15,2013-05-12 16:00:00,
2013-05-12 12:05:00,47.6,30.8,30.05,SW,221,13.0,14.0,52,0.00,,,0.00,Wunderground v.1.15,2013-05-12 16:05:00,
2013-05-12 12:10:00,48.6,32.2,30.05,West,260,13.0,20.0,53,0.00,,,0.00,Wunderground v.1.15,2013-05-12 16:10:00,
2013-05-12 12:15:00,48.3,31.9,30.05,WNW,288,14.0,20.0,53,0.00,,,0.00,Wunderground v.1.15,2013-05-12 16:15:00,
2013-05-12 12:20:00,48.3,31.9,30.05,West,270,14.0,14.0,53,0.00,,,0.00,Wunderground v.1.15,2013-05-12 16:20:00,
2013-05-12 12:25:00,48.9,33.0,30.04,WSW,247,13.0,14.0,54,0.00,,,0.00,Wunderground v.1.15,2013-05-12 16:25:00,
2013-05-12 12:30:00,48.7,33.2,30.04,West,271,14.0,14.0,55,0.00,,,0.00,Wunderground v.1.15,2013-05-12 16:30:00,
2013-05-12 12:40:00,46.7,33.5,30.05,WSW,246,11.0,11.0,60,0.00,,,0.00,Wunderground v.1.15,2013-05-12 16:40:00,
2013-05-12 12:45:00,47.2,34.4,30.05,West,266,11.0,12.0,61,0.00,,,0.00,Wunderground v.1.15,2013-05-12 16:45:00,
2013-05-12 12:50:00,48.3,33.8,30.05,West,263,13.0,13.0,57,0.00,,,0.00,Wunderground v.1.15,2013-05-12 16:50:00,
2013-05-12 12:55:00,49.1,32.2,30.05,West,276,13.0,16.0,52,0.00,,,0.00,Wunderground v.1.15,2013-05-12 16:55:00,
2013-05-12 13:00:00,49.4,33.4,30.05,SW,214,13.0,13.0,54,0.00,,,0.00,Wunderground v.1.15,2013-05-12 17:00:00,
2013-05-12 13:05:00,49.7,32.3,30.05,West,275,12.0,29.0,51,0.00,,,0.00,Wunderground v.1.15,2013-05-12 17:05:00,
2013-05-12 13:15:00,49.6,29.6,30.05,NW,308,13.0,15.0,46,0.00,,,0.00,Wunderground v.1.15,2013-05-12 17:15:00,
2013-05-12 13:20:00,49.5,29.0,30.05,WNW,284,14.0,14.0,45,0.00,,,0.00,Wunderground v.1.15,2013-05-12 17:20:00,
2013-05-12 13:25:00,49.9,31.0,30.05,WNW,283,14.0,16.0,48,0.00,,,0.00,Wunderground v.1.15,2013-05-12 17:25:00,
2013-05-12 13:30:00,48.5,28.6,30.06,West,273,13.0,13.0,46,0.00,,,0.00,Wunderground v.1.15,2013-05-12 17:30:00,
2013-05-12 13:35:00,48.8,30.0,30.06,NW,315,13.0,29.0,48,0.00,,,0.00,Wunderground v.1.15,2013-05-12 17:35:00,
2013-05-12 13:45:00,49.9,33.0,30.06,West,259,13.0,29.0,52,0.00,,,0.00,Wunderground v.1.15,2013-05-12 17:45:00,
2013-05-12 13:50:00,49.7,31.8,30.05,SW,236,12.0,29.0,50,0.00,,,0.00,Wunderground v.1.15,2013-05-12 17:50:00,
2013-05-12 13:55:00,49.9,31.0,30.05,West,281,12.0,29.0,48,0.00,,,0.00,Wunderground v.1.15,2013-05-12 17:55:00,
2013-05-12 14:00:00,49.6,29.6,30.05,West,265,13.0,13.0,46,0.00,,,0.00,Wunderground v.1.15,2013-05-12 18:00:00,
2013-05-12 14:05:00,49.6,30.2,30.05,WSW,241,14.0,14.0,47,0.00,,,0.00,Wunderground v.1.15,2013-05-12 18:05:00,
2013-05-12 14:10:00,49.8,30.4,30.05,SW,234,14.0,14.0,47,0.00,,,0.00,Wunderground v.1.15,2013-05-12 18:10:00,
2013-05-12 14:20:00,48.9,30.6,30.06,West,274,14.0,14.0,49,0.00,,,0.00,Wunderground v.1.15,2013-05-12 18:20:00,
2013-05-12 14:25:00,49.0,29.1,30.05,WSW,257,14.0,29.0,46,0.00,,,0.00,Wunderground v.1.15,2013-05-12 18:25:00,
2013-05-12 14:30:00,49.3,28.3,30.05,WNW,286,13.0,13.0,44,0.00,,,0.00,Wunderground v.1.15,2013-05-12 18:30:00,
2013-05-12 14:35:00,48.9,29.5,30.06,SW,236,14.0,14.0,47,0.00,,,0.00,Wunderground v.1.15,2013-05-12 18:35:00,
2013-05-12 14:40:00,49.6,31.2,30.06,WSW,238,14.0,29.0,49,0.00,,,0.00,Wunderground v.1.15,2013-05-12 18:40:00,
2013-05-12 14:50:00,49.0,29.6,30.06,WSW,257,14.0,29.0,47,0.00,,,0.00,Wunderground v.1.15,2013-05-12 18:50:00,
2013-05-12 14:55:00,49.2,30.8,30.06,WSW,253,14.0,29.0,49,0.00,,,0.00,Wunderground v.1.15,2013-05-12 18:55:00,
2013-05-12 15:00:00,48.8,28.4,30.06,WSW,244,16.0,29.0,45,0.00,,,0.00,Wunderground v.1.15,2013-05-12 19:00:00,
2013-05-12 15:05:00,49.4,29.5,30.06,WSW,249,16.0,29.0,46,0.00,,,0.00,Wunderground v.1.15,2013-05-12 19:05:00,
2013-05-12 15:10:00,48.8,28.4,30.06,WSW,258,17.0,17.0,45,0.00,,,0.00,Wunderground v.1.15,2013-05-12 19:10:00,
2013-05-12 15:15:00,49.2,30.3,30.07,WSW,251,17.0,29.0,48,0.00,,,0.00,Wunderground v.1.15,2013-05-12 19:15:00,
2013-05-12 15:20:00,48.9,29.5,30.07,West,259,16.0,29.0,47,0.00,,,0.00,Wunderground v.1.15,2013-05-12 19:20:00,
2013-05-12 15:25:00,49.0,31.2,30.07,West,263,15.0,29.0,50,0.00,,,0.00,Wunderground v.1.15,2013-05-12 19:25:00,
2013-05-12 15:30:00,49.0,31.2,30.07,West,279,14.0,14.0,50,0.00,,,0.00,Wunderground v.1.15,2013-05-12 19:30:00,
2013-05-12 15:50:00,47.8,29.5,30.07,West,267,15.0,29.0,49,0.00,,,0.00,Wunderground v.1.15,2013-05-12 19:50:00,
2013-05-12 16:00:00,47.8,31.9,30.07,WSW,240,14.0,29.0,54,0.00,,,0.00,Wunderground v.1.15,2013-05-12 20:00:00,
2013-05-12 16:05:00,49.0,33.1,30.07,WSW,247,13.0,29.0,54,0.00,,,0.00,Wunderground v.1.15,2013-05-12 20:05:00,
2013-05-12 16:10:00,48.8,31.9,30.07,WSW,251,13.0,29.0,52,0.00,,,0.00,Wunderground v.1.15,2013-05-12 20:10:00,
2013-05-12 16:15:00,49.0,32.1,30.08,WSW,254,15.0,29.0,52,0.00,,,0.00,Wunderground v.1.15,2013-05-12 20:15:00,
2013-05-12 16:20:00,48.5,31.2,30.08,WSW,242,16.0,16.0,51,0.00,,,0.00,Wunderground v.1.15,2013-05-12 20:20:00,
2013-05-12 16:25:00,48.5,29.2,30.08,WSW,243,15.0,18.0,47,0.00,,,0.00,Wunderground v.1.15,2013-05-12 20:25:00,
2013-05-12 16:35:00,49.1,31.2,30.08,SSW,208,15.0,29.0,50,0.00,,,0.00,Wunderground v.1.15,2013-05-12 20:35:00,
2013-05-12 16:40:00,48.4,30.6,30.08,West,264,17.0,17.0,50,0.00,,,0.00,Wunderground v.1.15,2013-05-12 20:40:00,
2013-05-12 16:45:00,48.3,31.0,30.08,WSW,245,17.0,29.0,51,0.00,,,0.00,Wunderground v.1.15,2013-05-12 20:45:00,
2013-05-12 16:50:00,48.4,30.1,30.08,WSW,247,15.0,15.0,49,0.00,,,0.00,Wunderground v.1.15,2013-05-12 20:50:00,
2013-05-12 16:55:00,48.3,30.0,30.08,WSW,256,16.0,22.0,49,0.00,,,0.00,Wunderground v.1.15,2013-05-12 20:55:00,
2013-05-12 17:00:00,47.2,30.0,30.09,SW,226,17.0,17.0,51,0.00,,,0.00,Wunderground v.1.15,2013-05-12 21:00:00,
2013-05-12 17:05:00,47.1,32.2,30.09,SSW,205,17.0,18.0,56,0.00,,,0.00,Wunderground v.1.15,2013-05-12 21:05:00,
2013-05-12 17:10:00,47.2,32.7,30.09,SW,223,17.0,17.0,57,0.00,,,0.00,Wunderground v.1.15,2013-05-12 21:10:00,
2013-05-12 17:15:00,47.2,32.3,30.09,WSW,252,16.0,29.0,56,0.00,,,0.00,Wunderground v.1.15,2013-05-12 21:15:00,
2013-05-12 17:20:00,47.3,32.4,30.09,SW,227,13.0,29.0,56,0.00,,,0.00,Wunderground v.1.15,2013-05-12 21:20:00,
2013-05-12 17:25:00,47.2,32.3,30.09,SW,224,12.0,29.0,56,0.00,,,0.00,Wunderground v.1.15,2013-05-12 21:25:00,
2013-05-12 17:35:00,46.4,31.1,30.09,WSW,250,13.0,29.0,55,0.00,,,0.00,Wunderground v.1.15,2013-05-12 21:35:00,
2013-05-12 17:40:00,46.2,30.9,30.10,WSW,238,12.0,29.0,55,0.00,,,0.00,Wunderground v.1.15,2013-05-12 21:40:00,
2013-05-12 17:45:00,46.0,30.7,30.10,WNW,287,14.0,29.0,55,0.00,,,0.00,Wunderground v.1.15,2013-05-12 21:45:00,
2013-05-12 17:50:00,46.0,31.2,30.10,West,259,14.0,14.0,56,0.00,,,0.00,Wunderground v.1.15,2013-05-12 21:50:00,
2013-05-12 17:55:00,45.9,31.1,30.09,West,274,14.0,29.0,56,0.00,,,0.00,Wunderground v.1.15,2013-05-12 21:55:00,
2013-05-12 18:00:00,45.9,31.1,30.10,West,280,13.0,13.0,56,0.00,,,0.00,Wunderground v.1.15,2013-05-12 22:00:00,
2013-05-12 18:10:00,45.4,31.0,30.10,WSW,254,13.0,13.0,57,0.00,,,0.00,Wunderground v.1.15,2013-05-12 22:10:00,
2013-05-12 18:15:00,45.4,31.0,30.10,West,279,12.0,13.0,57,0.00,,,0.00,Wunderground v.1.15,2013-05-12 22:15:00,
2013-05-12 18:20:00,45.4,30.6,30.10,WNW,284,12.0,12.0,56,0.00,,,0.00,Wunderground v.1.15,2013-05-12 22:20:00,
2013-05-12 18:25:00,45.1,31.6,30.11,WNW,296,11.0,12.0,59,0.00,,,0.00,Wunderground v.1.15,2013-05-12 22:25:00,
2013-05-12 18:30:00,44.0,34.1,30.11,WNW,296,10.0,10.0,68,0.00,,,0.00,Wunderground v.1.15,2013-05-12 22:30:00,
2013-05-12 18:40:00,43.1,34.0,30.11,NW,306,7.0,7.0,70,0.00,,,0.00,Wunderground v.1.15,2013-05-12 22:40:00,
2013-05-12 18:45:00,43.7,33.8,30.11,West,269,8.0,8.0,68,0.00,,,0.00,Wunderground v.1.15,2013-05-12 22:45:00,
2013-05-12 18:50:00,44.2,32.4,30.11,WNW,291,9.0,10.0,63,0.00,,,0.00,Wunderground v.1.15,2013-05-12 22:50:00,
2013-05-12 18:55:00,44.3,32.9,30.11,WSW,254,9.0,11.0,64,0.00,,,0.00,Wunderground v.1.15,2013-05-12 22:55:00,
2013-05-12 19:00:00,44.2,32.0,30.11,WNW,284,8.0,12.0,62,0.00,,,0.00,Wunderground v.1.15,2013-05-12 23:00:00,
2013-05-12 19:05:00,44.3,32.5,30.11,West,265,9.0,25.0,63,0.00,,,0.00,Wunderground v.1.15,2013-05-12 23:05:00,
2013-05-12 19:15:00,44.2,32.8,30.12,West,273,9.0,25.0,64,0.00,,,0.00,Wunderground v.1.15,2013-05-12 23:15:00,
2013-05-12 19:20:00,43.1,34.0,30.14,WSW,256,11.0,25.0,70,0.00,,,0.00,Wunderground v.1.15,2013-05-12 23:20:00,
2013-05-12 19:25:00,41.7,34.4,30.13,WSW,241,14.0,25.0,75,0.00,,,0.00,Wunderground v.1.15,2013-05-12 23:25:00,
2013-05-12 19:30:00,41.4,33.4,30.13,West,275,14.0,14.0,73,0.00,,,0.00,Wunderground v.1.15,2013-05-12 23:30:00,
2013-05-12 19:35:00,41.2,32.5,30.13,WNW,296,13.0,15.0,71,0.00,,,0.00,Wunderground v.1.15,2013-05-12 23:35:00,
2013-05-12 19:45:00,41.2,32.2,30.13,West,265,14.0,25.0,70,0.00,,,0.00,Wunderground v.1.15,2013-05-12 23:45:00,
2013-05-12 19:50:00,41.2,32.5,30.13,SW,225,14.0,14.0,71,0.00,,,0.00,Wunderground v.1.15,2013-05-12 23:50:00,
2013-05-12 19:55:00,41.0,32.7,30.14,West,271,14.0,25.0,72,0.00,,,0.00,Wunderground v.1.15,2013-05-12 23:55:00,
2013-05-12 20:00:00,40.6,33.6,30.13,WSW,248,15.0,25.0,76,0.00,,,0.00,Wunderground v.1.15,2013-05-13 00:00:00,
2013-05-12 20:05:00,39.8,33.5,30.13,WSW,249,15.0,25.0,78,0.00,,,0.00,Wunderground v.1.15,2013-05-13 00:05:00,
2013-05-12 20:10:00,39.5,33.8,30.14,SW,234,13.0,13.0,80,0.00,,,0.00,Wunderground v.1.15,2013-05-13 00:10:00,
2013-05-12 20:20:00,39.4,33.7,30.14,West,259,11.0,25.0,80,0.00,,,0.00,Wunderground v.1.15,2013-05-13 00:20:00,
2013-05-12 20:25:00,39.5,33.5,30.14,West,275,11.0,25.0,79,0.00,,,0.00,Wunderground v.1.15,2013-05-13 00:25:00,
2013-05-12 20:30:00,39.5,33.5,30.14,SW,225,11.0,11.0,79,0.00,,,0.00,Wunderground v.1.15,2013-05-13 00:30:00,
2013-05-12 20:35:00,39.4,33.4,30.14,West,264,11.0,25.0,79,0.00,,,0.00,Wunderground v.1.15,2013-05-13 00:35:00,
2013-05-12 20:40:00,39.4,33.4,30.15,WSW,251,10.0,25.0,79,0.00,,,0.00,Wunderground v.1.15,2013-05-13 00:40:00,
2013-05-12 20:45:00,39.4,33.4,30.15,West,261,10.0,25.0,79,0.00,,,0.00,Wunderground v.1.15,2013-05-13 00:45:00,
2013-05-12 20:50:00,39.3,33.0,30.15,WSW,240,10.0,10.0,78,0.00,,,0.00,Wunderground v.1.15,2013-05-13 00:50:00,
2013-05-12 20:55:00,39.6,33.0,30.16,West,271,11.0,11.0,77,0.00,,,0.00,Wunderground v.1.15,2013-05-13 00:55:00,
2013-05-12 21:00:00,39.7,33.1,30.16,WSW,250,10.0,10.0,77,0.00,,,0.00,Wunderground v.1.15,2013-05-13 01:00:00,
2013-05-12 21:05:00,39.5,33.5,30.17,SW,232,9.0,18.0,79,0.00,,,0.00,Wunderground v.1.15,2013-05-13 01:05:00,
2013-05-12 21:10:00,38.4,33.4,30.17,WSW,245,10.0,25.0,82,0.00,,,0.01,Wunderground v.1.15,2013-05-13 01:10:00,
2013-05-12 21:20:00,37.2,33.1,30.17,West,281,12.0,12.0,85,0.00,,,0.01,Wunderground v.1.15,2013-05-13 01:20:00,
2013-05-12 21:25:00,37.1,33.0,30.17,West,275,12.0,25.0,85,0.00,,,0.01,Wunderground v.1.15,2013-05-13 01:25:00,
2013-05-12 21:30:00,37.2,33.1,30.17,WSW,237,11.0,25.0,85,0.00,,,0.01,Wunderground v.1.15,2013-05-13 01:30:00,
2013-05-12 21:35:00,37.3,33.2,30.18,WNW,297,10.0,25.0,85,0.00,,,0.01,Wunderground v.1.15,2013-05-13 01:35:00,
2013-05-12 21:40:00,37.4,33.3,30.18,SW,230,9.0,25.0,85,0.00,,,0.01,Wunderground v.1.15,2013-05-13 01:40:00,
2013-05-12 21:45:00,37.4,33.6,30.18,SW,233,9.0,25.0,86,0.00,,,0.01,Wunderground v.1.15,2013-05-13 01:45:00,
2013-05-12 21:55:00,37.5,33.4,30.18,West,273,6.0,25.0,85,0.00,,,0.01,Wunderground v.1.15,2013-05-13 01:55:00,
2013-05-12 22:00:00,37.6,33.2,30.19,West,265,7.0,25.0,84,0.00,,,0.01,Wunderground v.1.15,2013-05-13 02:00:00,
2013-05-12 22:05:00,37.8,33.4,30.18,WSW,244,7.0,25.0,84,0.00,,,0.01,Wunderground v.1.15,2013-05-13 02:05:00,
2013-05-12 22:10:00,37.9,33.2,30.19,WSW,257,8.0,25.0,83,0.00,,,0.01,Wunderground v.1.15,2013-05-13 02:10:00,
2013-05-12 22:15:00,37.9,33.2,30.18,WSW,257,8.0,25.0,83,0.00,,,0.01,Wunderground v.1.15,2013-05-13 02:15:00,
2013-05-12 22:25:00,38.0,33.6,30.19,West,268,7.0,25.0,84,0.00,,,0.01,Wunderground v.1.15,2013-05-13 02:25:00,
2013-05-12 22:30:00,38.0,33.6,30.19,West,259,7.0,25.0,84,0.00,,,0.01,Wunderground v.1.15,2013-05-13 02:30:00,
2013-05-12 22:35:00,38.0,33.3,30.19,SW,234,8.0,25.0,83,0.00,,,0.01,Wunderground v.1.15,2013-05-13 02:35:00,
2013-05-12 22:40:00,38.1,33.4,30.19,NW,309,9.0,25.0,83,0.00,,,0.01,Wunderground v.1.15,2013-05-13 02:40:00,
2013-05-12 22:45:00,38.1,33.4,30.19,West,265,8.0,25.0,83,0.00,,,0.01,Wunderground v.1.15,2013-05-13 02:45:00,
2013-05-12 22:50:00,38.0,33.3,30.19,West,262,8.0,8.0,83,0.00,,,0.01,Wunderground v.1.15,2013-05-13 02:50:00,
2013-05-12 23:00:00,38.0,33.3,30.19,WSW,246,9.0,25.0,83,0.00,,,0.01,Wunderground v.1.15,2013-05-13 03:00:00,
2013-05-12 23:05:00,37.9,33.2,30.19,WSW,247,8.0,25.0,83,0.00,,,0.01,Wunderground v.1.15,2013-05-13 03:05:00,
2013-05-12 23:10:00,37.8,33.1,30.19,WSW,253,7.0,25.0,83,0.00,,,0.01,Wunderground v.1.15,2013-05-13 03:10:00,
2013-05-12 23:15:00,37.7,33.0,30.19,West,260,7.0,25.0,83,0.00,,,0.01,Wunderground v.1.15,2013-05-13 03:15:00,
2013-05-12 23:20:00,37.6,32.9,30.20,WNW,286,7.0,25.0,83,0.00,,,0.01,Wunderground v.1.15,2013-05-13 03:20:00,
2013-05-12 23:30:00,37.6,32.9,30.20,WSW,250,8.0,25.0,83,0.00,,,0.01,Wunderground v.1.15,2013-05-13 03:30:00,
2013-05-12 23:35:00,37.5,32.8,30.20,WSW,250,6.0,25.0,83,0.00,,,0.01,Wunderground v.1.15,2013-05-13 03:35:00,
2013-05-12 23:40:00,37.5,32.8,30.20,West,274,7.0,7.0,83,0.00,,,0.01,Wunderground v.1.15,2013-05-13 03:40:00,
2013-05-12 23:45:00,37.3,32.3,30.20,SW,236,6.0,25.0,82,0.00,,,0.01,Wunderground v.1.15,2013-05-13 03:45:00,
2013-05-12 23:50:00,37.4,31.8,30.20,West,269,7.0,7.0,80,0.00,,,0.01,Wunderground v.1.15,2013-05-13 03:50:00,
2013-05-12 23:55:00,37.4,31.2,30.20,West,264,8.0,8.0,78,0.00,,,0.01,Wunderground v.1.15,2013-05-13 03:55:00,